sensor_id;sensor_type;location;lat;lon;timestamp;P1;durP1;ratioP1;P2;durP2;ratioP2
12356;SDS011;6243;51.244;6.774;2023-02-28T00:02:11;7.57;;;4.60;;
12356;SDS011;6243;51.244;6.774;2023-02-28T00:04:36;6.03;;;4.60;;
12356;SDS011;6243;51.244;6.774;2023-02-28T00:07:03;5.53;;;4.90;;
12356;SDS011;6243;51.244;6.774;2023-02-28T00:09:29;6.07;;;4.97;;
12356;SDS011;6243;51.244;6.774;2023-02-28T00:11:54;5.80;;;4.70;;
12356;SDS011;6243;51.244;6.774;2023-02-28T00:14:20;5.97;;;4.90;;
12356;SDS011;6243;51.244;6.774;2023-02-28T00:16:45;9.10;;;4.90;;
12356;SDS011;6243;51.244;6.774;2023-02-28T00:19:11;6.10;;;4.67;;
12356;SDS011;6243;51.244;6.774;2023-02-28T00:21:36;6.27;;;4.87;;
12356;SDS011;6243;51.244;6.774;2023-02-28T00:24:04;7.20;;;5.07;;
12356;SDS011;6243;51.244;6.774;2023-02-28T00:26:30;6.80;;;4.70;;
12356;SDS011;6243;51.244;6.774;2023-02-28T00:28:55;5.90;;;5.00;;
12356;SDS011;6243;51.244;6.774;2023-02-28T00:31:21;6.73;;;5.00;;
12356;SDS011;6243;51.244;6.774;2023-02-28T00:33:46;7.13;;;5.10;;
12356;SDS011;6243;51.244;6.774;2023-02-28T00:36:12;5.30;;;4.80;;
12356;SDS011;6243;51.244;6.774;2023-02-28T00:38:38;6.43;;;5.03;;
12356;SDS011;6243;51.244;6.774;2023-02-28T00:41:07;6.60;;;5.07;;
12356;SDS011;6243;51.244;6.774;2023-02-28T00:43:33;5.00;;;4.50;;
12356;SDS011;6243;51.244;6.774;2023-02-28T00:45:59;6.83;;;4.77;;
12356;SDS011;6243;51.244;6.774;2023-02-28T00:48:25;7.67;;;4.90;;
12356;SDS011;6243;51.244;6.774;2023-02-28T00:50:51;6.83;;;5.10;;
12356;SDS011;6243;51.244;6.774;2023-02-28T00:53:16;7.43;;;5.07;;
12356;SDS011;6243;51.244;6.774;2023-02-28T00:55:42;7.70;;;5.20;;
12356;SDS011;6243;51.244;6.774;2023-02-28T00:58:09;5.57;;;4.53;;
12356;SDS011;6243;51.244;6.774;2023-02-28T01:00:34;7.40;;;4.80;;
12356;SDS011;6243;51.244;6.774;2023-02-28T01:03:00;7.70;;;4.57;;
12356;SDS011;6243;51.244;6.774;2023-02-28T01:05:25;8.23;;;4.97;;
12356;SDS011;6243;51.244;6.774;2023-02-28T01:07:51;5.47;;;4.83;;
12356;SDS011;6243;51.244;6.774;2023-02-28T01:10:16;5.83;;;5.03;;
12356;SDS011;6243;51.244;6.774;2023-02-28T01:12:42;7.00;;;5.23;;
12356;SDS011;6243;51.244;6.774;2023-02-28T01:15:10;6.50;;;4.93;;
12356;SDS011;6243;51.244;6.774;2023-02-28T01:17:36;6.77;;;4.90;;
12356;SDS011;6243;51.244;6.774;2023-02-28T01:20:02;7.13;;;4.73;;
12356;SDS011;6243;51.244;6.774;2023-02-28T01:22:27;6.73;;;4.90;;
12356;SDS011;6243;51.244;6.774;2023-02-28T01:24:53;6.93;;;4.80;;
12356;SDS011;6243;51.244;6.774;2023-02-28T01:27:19;8.07;;;4.63;;
12356;SDS011;6243;51.244;6.774;2023-02-28T01:29:45;6.43;;;4.30;;
12356;SDS011;6243;51.244;6.774;2023-02-28T01:32:11;7.17;;;4.83;;
12356;SDS011;6243;51.244;6.774;2023-02-28T01:34:37;5.47;;;4.20;;
12356;SDS011;6243;51.244;6.774;2023-02-28T01:37:02;6.60;;;4.87;;
12356;SDS011;6243;51.244;6.774;2023-02-28T01:39:28;7.93;;;5.07;;
12356;SDS011;6243;51.244;6.774;2023-02-28T01:41:54;9.47;;;5.43;;
12356;SDS011;6243;51.244;6.774;2023-02-28T01:47:25;5.83;;;4.00;;
12356;SDS011;6243;51.244;6.774;2023-02-28T01:49:54;6.20;;;4.53;;
12356;SDS011;6243;51.244;6.774;2023-02-28T01:52:20;6.77;;;5.10;;
12356;SDS011;6243;51.244;6.774;2023-02-28T01:54:48;6.07;;;4.53;;
12356;SDS011;6243;51.244;6.774;2023-02-28T01:57:17;6.83;;;4.70;;
12356;SDS011;6243;51.244;6.774;2023-02-28T01:59:48;6.00;;;4.60;;
12356;SDS011;6243;51.244;6.774;2023-02-28T02:02:19;7.73;;;4.50;;
12356;SDS011;6243;51.244;6.774;2023-02-28T02:04:50;6.60;;;5.17;;
12356;SDS011;6243;51.244;6.774;2023-02-28T02:07:18;5.73;;;4.43;;
12356;SDS011;6243;51.244;6.774;2023-02-28T02:09:44;5.27;;;4.37;;
12356;SDS011;6243;51.244;6.774;2023-02-28T02:12:11;6.47;;;4.23;;
12356;SDS011;6243;51.244;6.774;2023-02-28T02:14:47;6.27;;;4.70;;
12356;SDS011;6243;51.244;6.774;2023-02-28T02:17:27;5.90;;;4.40;;
12356;SDS011;6243;51.244;6.774;2023-02-28T02:26:23;5.67;;;4.60;;
12356;SDS011;6243;51.244;6.774;2023-02-28T02:32:12;6.90;;;4.20;;
12356;SDS011;6243;51.244;6.774;2023-02-28T02:34:53;6.90;;;4.70;;
12356;SDS011;6243;51.244;6.774;2023-02-28T02:37:27;6.57;;;4.03;;
12356;SDS011;6243;51.244;6.774;2023-02-28T02:40:00;8.30;;;4.60;;
12356;SDS011;6243;51.244;6.774;2023-02-28T02:42:35;7.30;;;4.23;;
12356;SDS011;6243;51.244;6.774;2023-02-28T02:45:06;5.43;;;4.30;;
12356;SDS011;6243;51.244;6.774;2023-02-28T02:47:37;5.23;;;4.00;;
12356;SDS011;6243;51.244;6.774;2023-02-28T02:50:08;6.57;;;4.70;;
12356;SDS011;6243;51.244;6.774;2023-02-28T02:52:39;5.10;;;4.07;;
12356;SDS011;6243;51.244;6.774;2023-02-28T02:55:10;5.93;;;4.10;;
12356;SDS011;6243;51.244;6.774;2023-02-28T02:57:38;7.33;;;4.30;;
12356;SDS011;6243;51.244;6.774;2023-02-28T03:00:11;6.87;;;4.60;;
12356;SDS011;6243;51.244;6.774;2023-02-28T03:02:39;7.00;;;4.80;;
12356;SDS011;6243;51.244;6.774;2023-02-28T03:05:08;6.67;;;4.57;;
12356;SDS011;6243;51.244;6.774;2023-02-28T03:07:42;4.63;;;4.13;;
12356;SDS011;6243;51.244;6.774;2023-02-28T03:12:54;5.63;;;3.80;;
12356;SDS011;6243;51.244;6.774;2023-02-28T03:15:30;6.23;;;4.00;;
12356;SDS011;6243;51.244;6.774;2023-02-28T03:18:02;7.17;;;4.20;;
12356;SDS011;6243;51.244;6.774;2023-02-28T03:20:35;6.83;;;4.07;;
12356;SDS011;6243;51.244;6.774;2023-02-28T03:23:10;4.70;;;4.17;;
12356;SDS011;6243;51.244;6.774;2023-02-28T03:25:44;5.43;;;3.87;;
12356;SDS011;6243;51.244;6.774;2023-02-28T03:28:20;5.93;;;4.20;;
12356;SDS011;6243;51.244;6.774;2023-02-28T03:30:54;4.53;;;3.63;;
12356;SDS011;6243;51.244;6.774;2023-02-28T03:33:26;6.07;;;3.80;;
12356;SDS011;6243;51.244;6.774;2023-02-28T03:35:57;4.97;;;3.83;;
12356;SDS011;6243;51.244;6.774;2023-02-28T03:38:28;5.90;;;3.93;;
12356;SDS011;6243;51.244;6.774;2023-02-28T03:41:00;5.23;;;3.87;;
12356;SDS011;6243;51.244;6.774;2023-02-28T03:43:33;4.87;;;3.63;;
12356;SDS011;6243;51.244;6.774;2023-02-28T03:46:04;5.03;;;3.80;;
12356;SDS011;6243;51.244;6.774;2023-02-28T03:48:36;8.40;;;4.53;;
12356;SDS011;6243;51.244;6.774;2023-02-28T03:51:07;5.70;;;3.90;;
12356;SDS011;6243;51.244;6.774;2023-02-28T03:53:37;4.50;;;3.53;;
12356;SDS011;6243;51.244;6.774;2023-02-28T03:56:08;5.87;;;3.97;;
12356;SDS011;6243;51.244;6.774;2023-02-28T03:58:39;7.07;;;4.10;;
12356;SDS011;6243;51.244;6.774;2023-02-28T04:01:09;5.37;;;4.00;;
12356;SDS011;6243;51.244;6.774;2023-02-28T04:03:37;7.17;;;3.73;;
12356;SDS011;6243;51.244;6.774;2023-02-28T04:06:04;5.43;;;3.60;;
12356;SDS011;6243;51.244;6.774;2023-02-28T04:08:37;5.83;;;4.10;;
12356;SDS011;6243;51.244;6.774;2023-02-28T04:11:03;5.60;;;3.70;;
12356;SDS011;6243;51.244;6.774;2023-02-28T04:13:31;4.77;;;3.90;;
12356;SDS011;6243;51.244;6.774;2023-02-28T04:15:57;4.13;;;3.50;;
12356;SDS011;6243;51.244;6.774;2023-02-28T04:18:22;8.03;;;3.80;;
12356;SDS011;6243;51.244;6.774;2023-02-28T04:20:48;4.07;;;3.40;;
12356;SDS011;6243;51.244;6.774;2023-02-28T04:23:15;6.07;;;3.93;;
12356;SDS011;6243;51.244;6.774;2023-02-28T04:25:40;6.27;;;3.50;;
12356;SDS011;6243;51.244;6.774;2023-02-28T04:28:06;5.00;;;3.63;;
12356;SDS011;6243;51.244;6.774;2023-02-28T04:30:31;11.23;;;3.90;;
12356;SDS011;6243;51.244;6.774;2023-02-28T04:32:57;5.83;;;3.60;;
12356;SDS011;6243;51.244;6.774;2023-02-28T04:35:22;5.13;;;3.70;;
12356;SDS011;6243;51.244;6.774;2023-02-28T04:37:48;4.70;;;3.50;;
12356;SDS011;6243;51.244;6.774;2023-02-28T04:40:15;4.33;;;3.50;;
12356;SDS011;6243;51.244;6.774;2023-02-28T04:42:41;4.80;;;3.20;;
12356;SDS011;6243;51.244;6.774;2023-02-28T04:45:07;5.20;;;3.80;;
12356;SDS011;6243;51.244;6.774;2023-02-28T04:47:33;4.57;;;3.67;;
12356;SDS011;6243;51.244;6.774;2023-02-28T04:49:59;6.43;;;3.67;;
12356;SDS011;6243;51.244;6.774;2023-02-28T04:52:24;3.90;;;3.30;;
12356;SDS011;6243;51.244;6.774;2023-02-28T04:54:52;5.17;;;4.00;;
12356;SDS011;6243;51.244;6.774;2023-02-28T04:57:18;5.63;;;3.57;;
12356;SDS011;6243;51.244;6.774;2023-02-28T04:59:44;4.67;;;3.33;;
12356;SDS011;6243;51.244;6.774;2023-02-28T05:02:09;5.63;;;3.60;;
12356;SDS011;6243;51.244;6.774;2023-02-28T05:04:35;4.43;;;3.63;;
12356;SDS011;6243;51.244;6.774;2023-02-28T05:07:01;4.63;;;3.60;;
12356;SDS011;6243;51.244;6.774;2023-02-28T05:09:28;3.50;;;3.20;;
12356;SDS011;6243;51.244;6.774;2023-02-28T05:11:53;3.80;;;3.40;;
12356;SDS011;6243;51.244;6.774;2023-02-28T05:14:21;4.30;;;3.83;;
12356;SDS011;6243;51.244;6.774;2023-02-28T05:16:47;6.20;;;3.67;;
12356;SDS011;6243;51.244;6.774;2023-02-28T05:19:12;3.83;;;3.13;;
12356;SDS011;6243;51.244;6.774;2023-02-28T05:21:38;4.93;;;3.63;;
12356;SDS011;6243;51.244;6.774;2023-02-28T05:24:06;4.57;;;3.80;;
12356;SDS011;6243;51.244;6.774;2023-02-28T05:26:34;5.43;;;3.70;;
12356;SDS011;6243;51.244;6.774;2023-02-28T05:28:59;4.13;;;3.43;;
12356;SDS011;6243;51.244;6.774;2023-02-28T05:31:26;4.60;;;3.80;;
12356;SDS011;6243;51.244;6.774;2023-02-28T05:33:52;4.53;;;3.73;;
12356;SDS011;6243;51.244;6.774;2023-02-28T05:36:18;4.57;;;3.60;;
12356;SDS011;6243;51.244;6.774;2023-02-28T05:38:45;4.30;;;3.37;;
12356;SDS011;6243;51.244;6.774;2023-02-28T05:41:11;5.43;;;3.90;;
12356;SDS011;6243;51.244;6.774;2023-02-28T05:43:37;6.50;;;3.63;;
12356;SDS011;6243;51.244;6.774;2023-02-28T05:46:03;4.23;;;3.30;;
12356;SDS011;6243;51.244;6.774;2023-02-28T05:48:31;4.60;;;3.40;;
12356;SDS011;6243;51.244;6.774;2023-02-28T05:50:57;5.43;;;3.70;;
12356;SDS011;6243;51.244;6.774;2023-02-28T05:53:22;4.57;;;3.80;;
12356;SDS011;6243;51.244;6.774;2023-02-28T05:55:48;4.60;;;3.20;;
12356;SDS011;6243;51.244;6.774;2023-02-28T05:58:13;4.77;;;3.37;;
12356;SDS011;6243;51.244;6.774;2023-02-28T06:00:39;5.03;;;3.67;;
12356;SDS011;6243;51.244;6.774;2023-02-28T06:03:04;5.93;;;3.97;;
12356;SDS011;6243;51.244;6.774;2023-02-28T06:05:31;6.20;;;3.30;;
12356;SDS011;6243;51.244;6.774;2023-02-28T06:07:56;4.40;;;3.50;;
12356;SDS011;6243;51.244;6.774;2023-02-28T06:10:22;5.57;;;3.67;;
12356;SDS011;6243;51.244;6.774;2023-02-28T06:12:47;3.80;;;3.43;;
12356;SDS011;6243;51.244;6.774;2023-02-28T06:15:13;3.87;;;3.33;;
12356;SDS011;6243;51.244;6.774;2023-02-28T06:17:40;4.10;;;3.70;;
12356;SDS011;6243;51.244;6.774;2023-02-28T06:20:07;6.03;;;3.67;;
12356;SDS011;6243;51.244;6.774;2023-02-28T06:22:35;5.80;;;3.83;;
12356;SDS011;6243;51.244;6.774;2023-02-28T06:25:01;4.00;;;3.30;;
12356;SDS011;6243;51.244;6.774;2023-02-28T06:27:27;4.83;;;3.70;;
12356;SDS011;6243;51.244;6.774;2023-02-28T06:29:53;7.03;;;3.80;;
12356;SDS011;6243;51.244;6.774;2023-02-28T06:32:19;6.13;;;3.30;;
12356;SDS011;6243;51.244;6.774;2023-02-28T06:34:45;4.00;;;3.40;;
12356;SDS011;6243;51.244;6.774;2023-02-28T06:37:10;4.00;;;3.30;;
12356;SDS011;6243;51.244;6.774;2023-02-28T06:39:37;4.47;;;3.37;;
12356;SDS011;6243;51.244;6.774;2023-02-28T06:42:03;5.10;;;3.40;;
12356;SDS011;6243;51.244;6.774;2023-02-28T06:44:28;5.50;;;3.57;;
12356;SDS011;6243;51.244;6.774;2023-02-28T06:46:54;4.90;;;3.80;;
12356;SDS011;6243;51.244;6.774;2023-02-28T06:49:19;7.00;;;3.73;;
12356;SDS011;6243;51.244;6.774;2023-02-28T06:51:45;5.27;;;4.03;;
12356;SDS011;6243;51.244;6.774;2023-02-28T06:54:11;4.07;;;3.60;;
12356;SDS011;6243;51.244;6.774;2023-02-28T06:56:38;4.30;;;3.40;;
12356;SDS011;6243;51.244;6.774;2023-02-28T06:59:05;3.63;;;3.20;;
12356;SDS011;6243;51.244;6.774;2023-02-28T07:01:30;5.27;;;3.67;;
12356;SDS011;6243;51.244;6.774;2023-02-28T07:03:56;4.67;;;3.43;;
12356;SDS011;6243;51.244;6.774;2023-02-28T07:06:21;4.00;;;3.30;;
12356;SDS011;6243;51.244;6.774;2023-02-28T07:08:47;4.43;;;3.47;;
12356;SDS011;6243;51.244;6.774;2023-02-28T07:11:13;3.90;;;3.50;;
12356;SDS011;6243;51.244;6.774;2023-02-28T07:13:40;5.23;;;3.67;;
12356;SDS011;6243;51.244;6.774;2023-02-28T07:16:07;6.97;;;3.50;;
12356;SDS011;6243;51.244;6.774;2023-02-28T07:18:34;5.50;;;3.10;;
12356;SDS011;6243;51.244;6.774;2023-02-28T07:21:01;6.13;;;3.80;;
12356;SDS011;6243;51.244;6.774;2023-02-28T07:23:27;5.37;;;3.60;;
12356;SDS011;6243;51.244;6.774;2023-02-28T07:25:52;6.03;;;3.67;;
12356;SDS011;6243;51.244;6.774;2023-02-28T07:28:18;4.60;;;3.20;;
12356;SDS011;6243;51.244;6.774;2023-02-28T07:30:44;6.73;;;3.57;;
12356;SDS011;6243;51.244;6.774;2023-02-28T07:33:10;3.60;;;3.17;;
12356;SDS011;6243;51.244;6.774;2023-02-28T07:35:35;5.27;;;3.47;;
12356;SDS011;6243;51.244;6.774;2023-02-28T07:38:01;4.97;;;3.37;;
12356;SDS011;6243;51.244;6.774;2023-02-28T07:40:27;4.10;;;3.70;;
12356;SDS011;6243;51.244;6.774;2023-02-28T07:42:53;5.00;;;3.20;;
12356;SDS011;6243;51.244;6.774;2023-02-28T07:45:19;4.83;;;3.47;;
12356;SDS011;6243;51.244;6.774;2023-02-28T07:47:46;4.70;;;3.23;;
12356;SDS011;6243;51.244;6.774;2023-02-28T07:50:13;3.67;;;3.00;;
12356;SDS011;6243;51.244;6.774;2023-02-28T07:52:41;4.67;;;3.13;;
12356;SDS011;6243;51.244;6.774;2023-02-28T07:55:07;4.67;;;3.20;;
12356;SDS011;6243;51.244;6.774;2023-02-28T07:57:34;3.93;;;3.20;;
12356;SDS011;6243;51.244;6.774;2023-02-28T08:00:00;5.57;;;3.00;;
12356;SDS011;6243;51.244;6.774;2023-02-28T08:02:25;4.23;;;3.30;;
12356;SDS011;6243;51.244;6.774;2023-02-28T08:04:52;3.40;;;2.90;;
12356;SDS011;6243;51.244;6.774;2023-02-28T08:07:18;4.20;;;3.27;;
12356;SDS011;6243;51.244;6.774;2023-02-28T08:09:43;3.83;;;3.17;;
12356;SDS011;6243;51.244;6.774;2023-02-28T08:12:10;3.83;;;2.50;;
12356;SDS011;6243;51.244;6.774;2023-02-28T08:14:36;3.03;;;2.73;;
12356;SDS011;6243;51.244;6.774;2023-02-28T08:17:02;4.03;;;3.20;;
12356;SDS011;6243;51.244;6.774;2023-02-28T08:19:28;3.23;;;2.93;;
12356;SDS011;6243;51.244;6.774;2023-02-28T08:21:55;3.63;;;3.13;;
12356;SDS011;6243;51.244;6.774;2023-02-28T08:24:21;4.07;;;2.90;;
12356;SDS011;6243;51.244;6.774;2023-02-28T08:26:47;4.73;;;3.13;;
12356;SDS011;6243;51.244;6.774;2023-02-28T08:29:12;4.20;;;2.60;;
12356;SDS011;6243;51.244;6.774;2023-02-28T08:31:38;5.23;;;2.63;;
12356;SDS011;6243;51.244;6.774;2023-02-28T08:34:04;6.53;;;3.03;;
12356;SDS011;6243;51.244;6.774;2023-02-28T08:36:30;4.27;;;2.80;;
12356;SDS011;6243;51.244;6.774;2023-02-28T08:38:57;3.47;;;2.87;;
12356;SDS011;6243;51.244;6.774;2023-02-28T08:41:23;3.07;;;2.50;;
12356;SDS011;6243;51.244;6.774;2023-02-28T08:43:49;3.87;;;2.37;;
12356;SDS011;6243;51.244;6.774;2023-02-28T08:46:14;3.63;;;2.40;;
12356;SDS011;6243;51.244;6.774;2023-02-28T08:48:40;3.60;;;2.50;;
12356;SDS011;6243;51.244;6.774;2023-02-28T08:51:07;3.00;;;2.70;;
12356;SDS011;6243;51.244;6.774;2023-02-28T08:53:39;3.77;;;2.17;;
12356;SDS011;6243;51.244;6.774;2023-02-28T08:56:07;2.30;;;2.10;;
12356;SDS011;6243;51.244;6.774;2023-02-28T08:58:39;1.97;;;1.87;;
12356;SDS011;6243;51.244;6.774;2023-02-28T09:01:08;2.77;;;1.57;;
12356;SDS011;6243;51.244;6.774;2023-02-28T09:03:35;5.43;;;2.47;;
12356;SDS011;6243;51.244;6.774;2023-02-28T09:06:00;2.43;;;1.90;;
12356;SDS011;6243;51.244;6.774;2023-02-28T09:08:27;1.87;;;1.67;;
12356;SDS011;6243;51.244;6.774;2023-02-28T09:10:53;3.83;;;1.87;;
12356;SDS011;6243;51.244;6.774;2023-02-28T09:13:21;6.37;;;1.97;;
12356;SDS011;6243;51.244;6.774;2023-02-28T09:15:46;2.70;;;2.00;;
12356;SDS011;6243;51.244;6.774;2023-02-28T09:18:12;4.10;;;2.10;;
12356;SDS011;6243;51.244;6.774;2023-02-28T09:20:37;3.67;;;1.93;;
12356;SDS011;6243;51.244;6.774;2023-02-28T09:23:04;2.60;;;1.87;;
12356;SDS011;6243;51.244;6.774;2023-02-28T09:25:29;2.07;;;1.83;;
12356;SDS011;6243;51.244;6.774;2023-02-28T09:27:55;1.97;;;1.87;;
12356;SDS011;6243;51.244;6.774;2023-02-28T09:30:21;1.80;;;1.67;;
12356;SDS011;6243;51.244;6.774;2023-02-28T09:32:47;2.77;;;1.83;;
12356;SDS011;6243;51.244;6.774;2023-02-28T09:35:12;2.43;;;1.90;;
12356;SDS011;6243;51.244;6.774;2023-02-28T09:37:38;2.10;;;1.90;;
12356;SDS011;6243;51.244;6.774;2023-02-28T09:40:04;2.47;;;1.70;;
12356;SDS011;6243;51.244;6.774;2023-02-28T09:42:31;2.13;;;1.50;;
12356;SDS011;6243;51.244;6.774;2023-02-28T09:44:58;1.73;;;1.63;;
12356;SDS011;6243;51.244;6.774;2023-02-28T09:47:29;1.70;;;1.60;;
12356;SDS011;6243;51.244;6.774;2023-02-28T09:49:56;3.57;;;1.73;;
12356;SDS011;6243;51.244;6.774;2023-02-28T09:52:26;1.97;;;1.77;;
12356;SDS011;6243;51.244;6.774;2023-02-28T09:54:54;2.00;;;1.77;;
12356;SDS011;6243;51.244;6.774;2023-02-28T09:57:24;1.63;;;1.50;;
12356;SDS011;6243;51.244;6.774;2023-02-28T10:00:02;2.70;;;1.90;;
12356;SDS011;6243;51.244;6.774;2023-02-28T10:05:49;2.43;;;1.97;;
12356;SDS011;6243;51.244;6.774;2023-02-28T10:08:19;2.43;;;1.90;;
12356;SDS011;6243;51.244;6.774;2023-02-28T10:10:50;2.07;;;1.83;;
12356;SDS011;6243;51.244;6.774;2023-02-28T10:13:20;2.70;;;2.03;;
12356;SDS011;6243;51.244;6.774;2023-02-28T10:15:52;1.97;;;1.80;;
12356;SDS011;6243;51.244;6.774;2023-02-28T10:18:24;2.80;;;1.80;;
12356;SDS011;6243;51.244;6.774;2023-02-28T10:20:53;2.27;;;2.07;;
12356;SDS011;6243;51.244;6.774;2023-02-28T10:23:22;2.23;;;1.90;;
12356;SDS011;6243;51.244;6.774;2023-02-28T10:25:53;3.03;;;1.90;;
12356;SDS011;6243;51.244;6.774;2023-02-28T10:28:21;2.77;;;2.03;;
12356;SDS011;6243;51.244;6.774;2023-02-28T10:30:51;1.90;;;1.80;;
12356;SDS011;6243;51.244;6.774;2023-02-28T10:33:19;3.93;;;2.27;;
12356;SDS011;6243;51.244;6.774;2023-02-28T10:35:48;2.03;;;1.83;;
12356;SDS011;6243;51.244;6.774;2023-02-28T10:38:16;5.00;;;2.20;;
12356;SDS011;6243;51.244;6.774;2023-02-28T10:40:43;2.50;;;2.20;;
12356;SDS011;6243;51.244;6.774;2023-02-28T10:43:17;2.67;;;2.20;;
12356;SDS011;6243;51.244;6.774;2023-02-28T10:45:52;3.30;;;1.90;;
12356;SDS011;6243;51.244;6.774;2023-02-28T10:48:29;2.27;;;2.07;;
12356;SDS011;6243;51.244;6.774;2023-02-28T10:50:58;3.00;;;1.80;;
12356;SDS011;6243;51.244;6.774;2023-02-28T10:53:30;2.47;;;1.97;;
12356;SDS011;6243;51.244;6.774;2023-02-28T10:55:59;3.20;;;1.93;;
12356;SDS011;6243;51.244;6.774;2023-02-28T10:58:27;2.70;;;1.80;;
12356;SDS011;6243;51.244;6.774;2023-02-28T11:00:55;2.30;;;1.80;;
12356;SDS011;6243;51.244;6.774;2023-02-28T11:03:24;1.67;;;1.57;;
12356;SDS011;6243;51.244;6.774;2023-02-28T11:05:54;2.63;;;2.00;;
12356;SDS011;6243;51.244;6.774;2023-02-28T11:08:20;2.90;;;2.10;;
12356;SDS011;6243;51.244;6.774;2023-02-28T11:10:48;2.03;;;1.70;;
12356;SDS011;6243;51.244;6.774;2023-02-28T11:13:21;3.70;;;1.80;;
12356;SDS011;6243;51.244;6.774;2023-02-28T11:15:53;3.10;;;1.80;;
12356;SDS011;6243;51.244;6.774;2023-02-28T11:18:21;4.03;;;1.80;;
12356;SDS011;6243;51.244;6.774;2023-02-28T11:20:49;2.47;;;1.57;;
12356;SDS011;6243;51.244;6.774;2023-02-28T11:23:17;1.60;;;1.50;;
12356;SDS011;6243;51.244;6.774;2023-02-28T11:25:48;2.30;;;1.87;;
12356;SDS011;6243;51.244;6.774;2023-02-28T11:28:27;1.50;;;1.40;;
12356;SDS011;6243;51.244;6.774;2023-02-28T11:31:01;1.90;;;1.70;;
12356;SDS011;6243;51.244;6.774;2023-02-28T11:33:30;2.80;;;1.40;;
12356;SDS011;6243;51.244;6.774;2023-02-28T11:35:59;2.67;;;1.73;;
12356;SDS011;6243;51.244;6.774;2023-02-28T11:38:27;2.43;;;1.70;;
12356;SDS011;6243;51.244;6.774;2023-02-28T11:40:59;1.87;;;1.77;;
12356;SDS011;6243;51.244;6.774;2023-02-28T11:43:35;2.50;;;1.60;;
12356;SDS011;6243;51.244;6.774;2023-02-28T11:46:16;1.70;;;1.60;;
12356;SDS011;6243;51.244;6.774;2023-02-28T11:48:51;2.57;;;1.90;;
12356;SDS011;6243;51.244;6.774;2023-02-28T11:51:28;2.30;;;1.47;;
12356;SDS011;6243;51.244;6.774;2023-02-28T11:57:00;2.00;;;1.70;;
12356;SDS011;6243;51.244;6.774;2023-02-28T11:59:32;2.00;;;1.90;;
12356;SDS011;6243;51.244;6.774;2023-02-28T12:02:22;2.33;;;2.00;;
12356;SDS011;6243;51.244;6.774;2023-02-28T12:04:52;2.10;;;1.90;;
12356;SDS011;6243;51.244;6.774;2023-02-28T12:07:31;2.60;;;2.07;;
12356;SDS011;6243;51.244;6.774;2023-02-28T12:10:10;2.10;;;2.00;;
12356;SDS011;6243;51.244;6.774;2023-02-28T12:12:49;3.13;;;1.90;;
12356;SDS011;6243;51.244;6.774;2023-02-28T12:18:23;2.30;;;1.80;;
12356;SDS011;6243;51.244;6.774;2023-02-28T12:20:57;3.17;;;1.90;;
12356;SDS011;6243;51.244;6.774;2023-02-28T12:23:37;2.87;;;2.13;;
12356;SDS011;6243;51.244;6.774;2023-02-28T12:26:23;2.20;;;1.93;;
12356;SDS011;6243;51.244;6.774;2023-02-28T12:28:59;2.27;;;1.93;;
12356;SDS011;6243;51.244;6.774;2023-02-28T12:31:33;2.37;;;2.03;;
12356;SDS011;6243;51.244;6.774;2023-02-28T12:34:04;3.33;;;2.03;;
12356;SDS011;6243;51.244;6.774;2023-02-28T12:36:34;2.73;;;2.53;;
12356;SDS011;6243;51.244;6.774;2023-02-28T12:39:03;2.67;;;1.80;;
12356;SDS011;6243;51.244;6.774;2023-02-28T12:41:34;3.03;;;1.90;;
12356;SDS011;6243;51.244;6.774;2023-02-28T12:44:13;2.63;;;1.90;;
12356;SDS011;6243;51.244;6.774;2023-02-28T12:46:45;2.53;;;2.33;;
12356;SDS011;6243;51.244;6.774;2023-02-28T12:49:15;2.20;;;2.00;;
12356;SDS011;6243;51.244;6.774;2023-02-28T12:51:44;2.77;;;2.30;;
12356;SDS011;6243;51.244;6.774;2023-02-28T12:54:13;3.10;;;2.27;;
12356;SDS011;6243;51.244;6.774;2023-02-28T12:56:47;2.77;;;2.27;;
12356;SDS011;6243;51.244;6.774;2023-02-28T12:59:22;2.43;;;2.23;;
12356;SDS011;6243;51.244;6.774;2023-02-28T13:05:12;2.53;;;2.20;;
12356;SDS011;6243;51.244;6.774;2023-02-28T13:10:49;2.30;;;2.10;;
12356;SDS011;6243;51.244;6.774;2023-02-28T13:13:17;3.33;;;2.40;;
12356;SDS011;6243;51.244;6.774;2023-02-28T13:15:59;2.73;;;2.00;;
12356;SDS011;6243;51.244;6.774;2023-02-28T13:18:28;2.30;;;2.10;;
12356;SDS011;6243;51.244;6.774;2023-02-28T13:20:56;2.33;;;2.13;;
12356;SDS011;6243;51.244;6.774;2023-02-28T13:23:36;3.87;;;2.17;;
12356;SDS011;6243;51.244;6.774;2023-02-28T13:26:05;2.43;;;2.23;;
12356;SDS011;6243;51.244;6.774;2023-02-28T13:31:26;3.07;;;2.30;;
12356;SDS011;6243;51.244;6.774;2023-02-28T13:36:44;2.80;;;2.30;;
12356;SDS011;6243;51.244;6.774;2023-02-28T13:47:52;3.33;;;2.30;;
12356;SDS011;6243;51.244;6.774;2023-02-28T13:50:21;2.40;;;2.20;;
12356;SDS011;6243;51.244;6.774;2023-02-28T13:52:55;2.93;;;2.40;;
12356;SDS011;6243;51.244;6.774;2023-02-28T13:55:48;2.40;;;2.17;;
12356;SDS011;6243;51.244;6.774;2023-02-28T14:01:11;2.47;;;2.23;;
12356;SDS011;6243;51.244;6.774;2023-02-28T14:04:09;2.67;;;2.40;;
12356;SDS011;6243;51.244;6.774;2023-02-28T14:07:15;4.23;;;2.40;;
12356;SDS011;6243;51.244;6.774;2023-02-28T14:09:45;2.37;;;2.00;;
12356;SDS011;6243;51.244;6.774;2023-02-28T14:18:21;2.97;;;2.20;;
12356;SDS011;6243;51.244;6.774;2023-02-28T14:20:52;2.67;;;2.47;;
12356;SDS011;6243;51.244;6.774;2023-02-28T14:23:30;4.00;;;2.20;;
12356;SDS011;6243;51.244;6.774;2023-02-28T14:26:19;3.33;;;2.50;;
12356;SDS011;6243;51.244;6.774;2023-02-28T14:29:01;3.63;;;2.40;;
12356;SDS011;6243;51.244;6.774;2023-02-28T14:31:44;2.73;;;2.40;;
12356;SDS011;6243;51.244;6.774;2023-02-28T14:34:20;2.60;;;2.40;;
12356;SDS011;6243;51.244;6.774;2023-02-28T14:36:58;3.90;;;2.77;;
12356;SDS011;6243;51.244;6.774;2023-02-28T14:39:26;3.63;;;2.70;;
12356;SDS011;6243;51.244;6.774;2023-02-28T14:41:54;2.87;;;2.53;;
12356;SDS011;6243;51.244;6.774;2023-02-28T14:44:20;4.20;;;2.40;;
12356;SDS011;6243;51.244;6.774;2023-02-28T14:46:48;2.60;;;2.20;;
12356;SDS011;6243;51.244;6.774;2023-02-28T14:49:17;2.73;;;2.50;;
12356;SDS011;6243;51.244;6.774;2023-02-28T14:51:45;4.10;;;2.87;;
12356;SDS011;6243;51.244;6.774;2023-02-28T14:54:13;2.50;;;2.30;;
12356;SDS011;6243;51.244;6.774;2023-02-28T14:56:42;2.50;;;2.23;;
12356;SDS011;6243;51.244;6.774;2023-02-28T14:59:21;3.53;;;2.40;;
12356;SDS011;6243;51.244;6.774;2023-02-28T15:01:50;3.53;;;2.20;;
12356;SDS011;6243;51.244;6.774;2023-02-28T15:04:18;2.60;;;2.40;;
12356;SDS011;6243;51.244;6.774;2023-02-28T15:09:34;2.57;;;2.37;;
12356;SDS011;6243;51.244;6.774;2023-02-28T15:11:59;4.27;;;2.80;;
12356;SDS011;6243;51.244;6.774;2023-02-28T15:14:25;2.90;;;2.67;;
12356;SDS011;6243;51.244;6.774;2023-02-28T15:16:52;2.87;;;2.67;;
12356;SDS011;6243;51.244;6.774;2023-02-28T15:19:23;3.63;;;2.63;;
12356;SDS011;6243;51.244;6.774;2023-02-28T15:21:52;4.87;;;3.00;;
12356;SDS011;6243;51.244;6.774;2023-02-28T15:24:23;3.37;;;2.40;;
12356;SDS011;6243;51.244;6.774;2023-02-28T15:26:57;3.00;;;2.70;;
12356;SDS011;6243;51.244;6.774;2023-02-28T15:29:25;2.90;;;2.60;;
12356;SDS011;6243;51.244;6.774;2023-02-28T15:31:55;3.17;;;2.87;;
12356;SDS011;6243;51.244;6.774;2023-02-28T15:34:27;3.27;;;2.97;;
12356;SDS011;6243;51.244;6.774;2023-02-28T15:36:59;3.07;;;2.73;;
12356;SDS011;6243;51.244;6.774;2023-02-28T15:39:26;2.53;;;2.33;;
12356;SDS011;6243;51.244;6.774;2023-02-28T15:41:54;2.87;;;2.60;;
12356;SDS011;6243;51.244;6.774;2023-02-28T15:44:37;3.30;;;3.00;;
12356;SDS011;6243;51.244;6.774;2023-02-28T15:47:03;2.97;;;2.40;;
12356;SDS011;6243;51.244;6.774;2023-02-28T15:49:32;3.93;;;2.97;;
12356;SDS011;6243;51.244;6.774;2023-02-28T15:52:03;3.80;;;2.70;;
12356;SDS011;6243;51.244;6.774;2023-02-28T15:54:30;3.63;;;2.63;;
12356;SDS011;6243;51.244;6.774;2023-02-28T15:57:03;2.87;;;2.63;;
12356;SDS011;6243;51.244;6.774;2023-02-28T15:59:32;3.10;;;2.80;;
12356;SDS011;6243;51.244;6.774;2023-02-28T16:02:11;4.30;;;2.87;;
12356;SDS011;6243;51.244;6.774;2023-02-28T16:04:54;3.77;;;2.83;;
12356;SDS011;6243;51.244;6.774;2023-02-28T16:07:22;3.83;;;2.90;;
12356;SDS011;6243;51.244;6.774;2023-02-28T16:09:47;3.20;;;2.70;;